createdAt,value
2018-07-11T00:00:18.786Z,0.8
2018-07-11T00:02:18.224Z,0.9
2018-07-11T00:04:18.029Z,0.9
2018-07-11T00:06:19.276Z,0.4
2018-07-11T00:08:19.101Z,0.9
2018-07-11T00:10:19.388Z,0.7
2018-07-11T00:12:19.013Z,0.5
2018-07-11T00:14:17.832Z,0.8
2018-07-11T00:16:19.261Z,0.7
2018-07-11T00:18:18.145Z,0.7
2018-07-11T00:20:17.945Z,1
2018-07-11T00:22:17.758Z,0.8
2018-07-11T00:24:17.563Z,1
2018-07-11T00:26:18.428Z,0.9
2018-07-11T00:28:18.240Z,1.1
2018-07-11T00:30:19.039Z,0.9
2018-07-11T00:32:18.868Z,0.7
2018-07-11T00:34:17.677Z,1
2018-07-11T00:36:18.438Z,0.7
2018-07-11T00:38:18.279Z,0.6
2018-07-11T00:40:18.532Z,0.8
2018-07-11T00:42:19.333Z,0.8
2018-07-11T00:44:18.143Z,0.6
2018-07-11T00:46:18.731Z,0.5
2018-07-11T00:48:18.532Z,0.7
2018-07-11T00:50:19.357Z,0.7
2018-07-11T00:52:18.134Z,0.6
2018-07-11T00:54:18.948Z,1.4
2018-07-11T00:56:17.571Z,0.8
2018-07-11T00:58:19.381Z,0.8
2018-07-11T01:00:19.221Z,0.7
2018-07-11T01:02:18.039Z,0.6
2018-07-11T01:04:17.842Z,0.9
2018-07-11T01:06:18.478Z,0.9
2018-07-11T01:08:18.263Z,0.9
2018-07-11T01:10:17.565Z,1
2018-07-11T01:12:19.368Z,0.9
2018-07-11T01:14:19.151Z,0.5
2018-07-11T01:16:18.025Z,0.7
2018-07-11T01:18:18.894Z,0.9
2018-07-11T01:20:17.785Z,0.6
2018-07-11T01:22:18.573Z,0.9
2018-07-11T01:24:19.385Z,1
2018-07-11T01:26:18.955Z,0.8
2018-07-11T01:28:17.763Z,0.6
2018-07-11T01:30:18.567Z,0.9
2018-07-11T01:32:18.303Z,1.1
2018-07-11T01:34:19.071Z,0.9
2018-07-11T01:36:18.677Z,0.7
2018-07-11T01:38:19.502Z,0.9
2018-07-11T01:40:18.785Z,0.9
2018-07-11T01:42:17.576Z,0.7
2018-07-11T01:44:19.387Z,0.8
2018-07-11T01:46:19.523Z,1
2018-07-11T01:48:19.322Z,1.1
2018-07-11T01:50:18.197Z,1.1
2018-07-11T01:52:19.003Z,1
2018-07-11T01:54:18.822Z,1.2
2018-07-11T01:56:19.099Z,0.9
2018-07-11T01:58:18.883Z,1
2018-07-11T02:00:18.778Z,1
2018-07-11T02:02:18.575Z,1.5
2018-07-11T02:04:19.365Z,1.2
2018-07-11T02:06:18.994Z,1.1
2018-07-11T02:08:18.773Z,1.1
2018-07-11T02:10:19.060Z,0.9
2018-07-11T02:12:18.858Z,1
2018-07-11T02:14:18.667Z,1.1
2018-07-11T02:16:17.761Z,1.4
2018-07-11T02:18:18.604Z,1.1
2018-07-11T02:20:19.386Z,1.4
2018-07-11T02:22:19.197Z,1.5
2018-07-11T02:24:18.983Z,1.2
2018-07-11T02:26:18.574Z,1.5
2018-07-11T02:28:19.375Z,1
2018-07-11T02:30:19.190Z,1.2
2018-07-11T02:32:17.717Z,1.2
2018-07-11T02:34:19.497Z,1.3
2018-07-11T02:36:18.108Z,1
2018-07-11T02:38:18.932Z,1.6
2018-07-11T02:40:19.193Z,1.3
2018-07-11T02:42:18.999Z,1.1
2018-07-11T02:44:18.777Z,1.3
2018-07-11T02:46:19.211Z,1.5
2018-07-11T02:48:19.003Z,1.2
2018-07-11T02:50:17.808Z,1.5
2018-07-11T02:52:18.623Z,1.3
2018-07-11T02:54:18.446Z,1.6
2018-07-11T02:56:19.340Z,1.1
2018-07-11T02:58:19.154Z,1.9
2018-07-11T03:00:18.984Z,1.4
2018-07-11T03:02:18.814Z,1.7
2018-07-11T03:04:18.605Z,1.1
2018-07-11T03:06:19.140Z,1.6
2018-07-11T03:08:18.906Z,1.1
2018-07-11T03:10:19.199Z,1.1
2018-07-11T03:12:18.988Z,1.2
2018-07-11T03:14:18.782Z,0.8
2018-07-11T03:16:18.856Z,1.3
2018-07-11T03:18:18.742Z,1.6
2018-07-11T03:20:18.703Z,1
2018-07-11T03:22:19.510Z,1.6
2018-07-11T03:24:18.300Z,1.3
2018-07-11T03:26:18.854Z,1.4
2018-07-11T03:28:18.655Z,1.4
2018-07-11T03:30:19.436Z,1.3
2018-07-11T03:32:19.202Z,1.8
2018-07-11T03:34:19.015Z,1.1
2018-07-11T03:36:19.408Z,1.7
2018-07-11T03:38:19.210Z,2.2
2018-07-11T03:40:19.505Z,1.5
2018-07-11T03:42:19.305Z,1.9
2018-07-11T03:44:19.095Z,1.6
2018-07-11T03:46:18.677Z,2.3
2018-07-11T03:48:19.464Z,2.2
2018-07-11T03:50:18.272Z,2.1
2018-07-11T03:52:19.046Z,2.4
2018-07-11T03:54:18.816Z,2.8
2018-07-11T03:56:19.406Z,2.4
2018-07-11T03:58:19.232Z,2.4
2018-07-11T04:00:19.028Z,1.9
2018-07-11T04:02:18.602Z,2.2
2018-07-11T04:04:19.394Z,1.8
2018-07-11T04:06:19.043Z,1.9
2018-07-11T04:08:17.860Z,2.1
2018-07-11T04:10:18.239Z,1.8
2018-07-11T04:12:18.053Z,1.5
2018-07-11T04:14:17.858Z,2.1
2018-07-11T04:16:18.939Z,2.3
2018-07-11T04:18:18.840Z,2
2018-07-11T04:20:18.633Z,2.4
2018-07-11T04:22:18.443Z,1.8
2018-07-11T04:24:18.235Z,2.6
2018-07-11T04:26:18.030Z,2.3
2018-07-11T04:28:18.794Z,2.3
2018-07-11T04:30:18.638Z,2.4
2018-07-11T04:32:19.457Z,2.7
2018-07-11T04:34:19.297Z,2.8
2018-07-11T04:36:18.820Z,3.4
2018-07-11T04:38:17.627Z,2.1
2018-07-11T04:40:18.894Z,3.1
2018-07-11T04:42:18.699Z,2.4
2018-07-11T04:44:19.482Z,2.8
2018-07-11T04:46:18.055Z,3.3
2018-07-11T04:48:17.862Z,2.1
2018-07-11T04:50:18.663Z,2.6
2018-07-11T04:52:19.484Z,3.3
2018-07-11T04:54:19.350Z,2.2
2018-07-11T04:56:18.494Z,3.1
2018-07-11T04:58:19.277Z,2.3
2018-07-11T05:00:19.101Z,3.4
2018-07-11T05:02:18.909Z,3.7
2018-07-11T05:04:18.704Z,3.3
2018-07-11T05:06:18.843Z,3
2018-07-11T05:08:17.660Z,3.2
2018-07-11T05:10:17.920Z,2.6
2018-07-11T05:12:18.707Z,3.8
2018-07-11T05:14:18.504Z,3.6
2018-07-11T05:16:18.761Z,2.5
2018-07-11T05:18:18.864Z,3.3
2018-07-11T05:20:18.645Z,3.4
2018-07-11T05:22:19.428Z,3.4
2018-07-11T05:24:19.219Z,3.7
2018-07-11T05:26:18.863Z,2.9
2018-07-11T05:28:18.647Z,3.2
2018-07-11T05:30:19.462Z,3.3
2018-07-11T05:32:19.244Z,2.8
2018-07-11T05:34:18.034Z,3.3
2018-07-11T05:36:19.131Z,3.6
2018-07-11T05:38:18.939Z,3.8
2018-07-11T05:40:19.312Z,3
2018-07-11T05:42:18.100Z,4
2018-07-11T05:44:17.905Z,3.7
2018-07-11T05:46:19.479Z,3.3
2018-07-11T05:48:18.364Z,3.9
2018-07-11T05:50:18.434Z,3.1
2018-07-11T05:52:18.228Z,3.2
2018-07-11T05:54:18.060Z,3
2018-07-11T05:56:18.264Z,2.8
2018-07-11T05:58:19.064Z,2.4
2018-07-11T06:00:17.868Z,2.6
2018-07-11T06:02:17.659Z,2.4
2018-07-11T06:04:19.471Z,2
2018-07-11T06:06:19.021Z,1.5
2018-07-11T06:08:18.819Z,2.6
2018-07-11T06:10:18.104Z,2.1
2018-07-11T06:12:17.877Z,2.2
2018-07-11T06:14:17.679Z,1.6
2018-07-11T06:16:18.578Z,1.5
2018-07-11T06:18:19.515Z,1.5
2018-07-11T06:20:19.305Z,1.7
2018-07-11T06:22:19.091Z,1.7
2018-07-11T06:24:18.893Z,1.5
2018-07-11T06:26:18.013Z,1.1
2018-07-11T06:28:18.818Z,1.4
2018-07-11T06:30:18.606Z,1.2
2018-07-11T06:32:19.428Z,1.5
2018-07-11T06:34:18.234Z,1.6
2018-07-11T06:36:18.853Z,1.1
2018-07-11T06:38:17.628Z,0.9
2018-07-11T06:40:17.847Z,0.6
2018-07-11T06:42:18.635Z,1.2
2018-07-11T06:44:18.449Z,0.9
2018-07-11T06:46:19.184Z,0.6
2018-07-11T06:48:19.024Z,1
2018-07-11T06:50:17.809Z,0.9
2018-07-11T06:52:17.594Z,0.9
2018-07-11T06:54:18.377Z,1
2018-07-11T06:56:18.978Z,1
2018-07-11T06:58:17.775Z,0.6
2018-07-11T07:00:17.595Z,1.1
2018-07-11T07:02:18.418Z,0.9
2018-07-11T07:04:19.200Z,1
2018-07-11T07:06:19.432Z,0.7
2018-07-11T07:08:18.243Z,0.9
2018-07-11T07:10:18.497Z,0.6
2018-07-11T07:12:18.294Z,0.5
2018-07-11T07:14:18.091Z,1
2018-07-11T07:16:19.262Z,0.7
2018-07-11T07:18:19.135Z,0.9
2018-07-11T07:20:17.937Z,0.5
2018-07-11T07:22:17.717Z,1
2018-07-11T07:24:18.525Z,0.5
2018-07-11T07:26:17.610Z,0.5
2018-07-11T07:28:18.402Z,0.9
2018-07-11T07:30:18.290Z,0.5
2018-07-11T07:32:19.074Z,0.9
2018-07-11T07:34:17.860Z,0.7
2018-07-11T07:36:18.971Z,0.6
2018-07-11T07:38:17.785Z,0.7
2018-07-11T07:40:18.047Z,1.1
2018-07-11T07:42:17.835Z,0.6
2018-07-11T07:44:17.627Z,0.7
2018-07-11T07:46:18.376Z,0.6
2018-07-11T07:48:18.184Z,0.7
2018-07-11T07:50:18.030Z,0.5
2018-07-11T07:52:17.823Z,0.3
2018-07-11T07:54:17.694Z,0.5
2018-07-11T07:56:18.283Z,0.5
2018-07-11T07:58:18.074Z,0.4
2018-07-11T08:00:17.862Z,0.5
2018-07-11T08:02:17.653Z,0.5
2018-07-11T08:04:18.480Z,0.3
2018-07-11T08:06:17.592Z,0.3
2018-07-11T08:08:18.390Z,0.5
2018-07-11T08:10:17.726Z,0.4
2018-07-11T08:12:17.527Z,0.3
2018-07-11T08:14:18.317Z,0.4
2018-07-11T08:16:18.200Z,0.8
2018-07-11T08:18:18.063Z,0.5
2018-07-11T08:20:17.875Z,0.4
2018-07-11T08:22:17.645Z,0.4
2018-07-11T08:24:18.452Z,0.3
2018-07-11T08:26:17.686Z,0.4
2018-07-11T08:28:18.496Z,0.7
2018-07-11T08:30:18.307Z,0.9
2018-07-11T08:32:18.124Z,0.5
2018-07-11T08:34:17.928Z,0.5
2018-07-11T08:36:18.178Z,0.6
2018-07-11T08:38:18.005Z,0.3
2018-07-11T08:40:18.272Z,0.4
2018-07-11T08:42:18.058Z,0.4
2018-07-11T08:44:17.894Z,0.4
2018-07-11T08:46:18.050Z,0.4
2018-07-11T08:48:17.924Z,0.3
2018-07-11T08:50:17.830Z,0.3
2018-07-11T08:52:17.624Z,0.4
2018-07-11T08:54:18.416Z,0.4
2018-07-11T08:56:18.174Z,0.6
2018-07-11T08:58:17.972Z,0.4
2018-07-11T09:00:17.793Z,0.4
2018-07-11T09:02:17.594Z,0.5
2018-07-11T09:04:18.400Z,0.3
2018-07-11T09:06:17.732Z,0.4
2018-07-11T09:08:18.541Z,0.5
2018-07-11T09:10:17.814Z,0.5
2018-07-11T09:12:17.644Z,0.5
2018-07-11T09:14:18.445Z,0.4
2018-07-11T09:16:18.104Z,0.3
2018-07-11T09:18:17.946Z,0.4
2018-07-11T09:20:17.755Z,0.8
2018-07-11T09:22:17.574Z,0.5
2018-07-11T09:24:18.418Z,0.3
2018-07-11T09:26:17.668Z,0.6
2018-07-11T09:28:18.467Z,0.4
2018-07-11T09:30:18.336Z,0.4
2018-07-11T09:32:18.126Z,0.4
2018-07-11T09:34:17.930Z,0.6
2018-07-11T09:36:17.518Z,0.5
2018-07-11T09:38:18.330Z,0.6
2018-07-11T09:40:17.624Z,0.5
2018-07-11T09:42:18.233Z,0.3
2018-07-11T09:44:18.038Z,0.7
2018-07-11T09:46:17.599Z,0.4
2018-07-11T09:48:18.427Z,0.5
2018-07-11T09:50:18.314Z,0.5
2018-07-11T09:52:18.196Z,0.5
2018-07-11T09:54:18.093Z,0.4
2018-07-11T09:56:17.889Z,0.5
2018-07-11T09:58:17.669Z,0.5
2018-07-11T10:00:18.490Z,0.3
2018-07-11T10:02:18.303Z,0.4
2018-07-11T10:04:18.093Z,0.3
2018-07-11T10:06:18.396Z,0.5
2018-07-11T10:08:18.218Z,0.5
2018-07-11T10:10:18.471Z,0.5
2018-07-11T10:12:18.281Z,0.8
2018-07-11T10:14:18.095Z,0.4
2018-07-11T10:16:17.591Z,0.3
2018-07-11T10:18:18.451Z,0.6
2018-07-11T10:20:18.268Z,0.6
2018-07-11T10:22:18.072Z,0.4
2018-07-11T10:24:17.863Z,0.5
2018-07-11T10:26:18.531Z,3.7
2018-07-11T10:28:18.377Z,2.5
2018-07-11T10:30:18.210Z,2.1
2018-07-11T10:32:18.039Z,0.8
2018-07-11T10:34:17.863Z,1
2018-07-11T10:36:18.050Z,0.6
2018-07-11T10:38:17.843Z,0.5
2018-07-11T10:40:18.324Z,0.6
2018-07-11T10:42:18.115Z,0.6
2018-07-11T10:44:17.931Z,0.5
2018-07-11T10:46:17.657Z,0.6
2018-07-11T10:48:18.459Z,0.6
2018-07-11T10:50:18.278Z,0.3
2018-07-11T10:52:18.105Z,0.5
2018-07-11T10:54:17.911Z,0.5
2018-07-11T10:56:17.794Z,0.3
2018-07-11T10:58:17.596Z,0.5
2018-07-11T11:00:35.970Z,0.5
2018-07-11T11:02:17.850Z,0.6
2018-07-11T11:04:17.667Z,0.6
2018-07-11T11:06:18.286Z,0.4
2018-07-11T11:08:18.106Z,0.7
2018-07-11T11:10:18.407Z,0.7
2018-07-11T11:12:18.258Z,0.5
2018-07-11T11:14:18.056Z,0.5
2018-07-11T11:16:17.571Z,0.4
2018-07-11T11:18:18.467Z,0.4
2018-07-11T11:20:18.311Z,0.3
2018-07-11T11:22:17.612Z,0.3
2018-07-11T11:24:18.414Z,0.6
2018-07-11T11:26:18.502Z,0.6
2018-07-11T11:28:18.319Z,0.7
2018-07-11T11:30:18.127Z,0.4
2018-07-11T11:32:17.926Z,0.3
2018-07-11T11:34:17.748Z,0.8
2018-07-11T11:36:18.356Z,0.4
2018-07-11T11:38:18.185Z,0.4
2018-07-11T11:40:18.502Z,0.4
2018-07-11T11:42:18.586Z,0.4
2018-07-11T11:44:17.754Z,0.5
2018-07-11T11:46:18.422Z,0.4
2018-07-11T11:48:18.224Z,0.5
2018-07-11T11:50:18.070Z,0.5
2018-07-11T11:52:17.879Z,0.4
2018-07-11T11:54:17.690Z,0.6
2018-07-11T11:56:18.308Z,0.4
2018-07-11T11:58:18.118Z,0.4
2018-07-11T12:00:17.972Z,0.6
2018-07-11T12:02:17.787Z,0.2
2018-07-11T12:04:17.609Z,0.6
2018-07-11T12:06:18.310Z,0.5
2018-07-11T12:08:18.121Z,0.3
2018-07-11T12:10:18.473Z,0.5
2018-07-11T12:12:18.274Z,0.3
2018-07-11T12:14:18.077Z,0.5
2018-07-11T12:16:18.196Z,0.5
2018-07-11T12:18:18.095Z,0.6
2018-07-11T12:20:17.931Z,0.5
2018-07-11T12:22:17.787Z,0.5
2018-07-11T12:24:17.645Z,0.5
2018-07-11T12:26:17.792Z,0.2
2018-07-11T12:28:17.606Z,0.4
2018-07-11T12:30:18.458Z,0.4
2018-07-11T12:32:18.312Z,0.5
2018-07-11T12:34:18.150Z,0.6
2018-07-11T12:36:18.201Z,0.5
2018-07-11T12:38:17.999Z,0.5
2018-07-11T12:40:18.300Z,0.6
2018-07-11T12:42:18.109Z,0.6
2018-07-11T12:44:17.923Z,0.7
2018-07-11T12:46:18.524Z,0.9
2018-07-11T12:48:18.337Z,0.6
2018-07-11T12:50:18.151Z,0.9
2018-07-11T12:52:17.972Z,0.6
2018-07-11T12:54:17.791Z,0.5
2018-07-11T12:56:17.911Z,0.4
2018-07-11T12:58:17.731Z,0.6
2018-07-11T13:00:17.551Z,1.2
2018-07-11T13:02:18.396Z,0.5
2018-07-11T13:04:18.247Z,0.5
2018-07-11T13:06:17.843Z,0.6
2018-07-11T13:08:17.680Z,0.7
2018-07-11T13:10:17.931Z,0.9
2018-07-11T13:12:17.759Z,0.5
2018-07-11T13:14:17.580Z,0.9
2018-07-11T13:16:17.967Z,0.8
2018-07-11T13:18:18.136Z,0.6
2018-07-11T13:20:17.968Z,1
2018-07-11T13:22:17.771Z,1.1
2018-07-11T13:24:17.589Z,0.7
2018-07-11T13:26:18.292Z,1
2018-07-11T13:28:18.111Z,0.6
2018-07-11T13:30:17.976Z,0.4
2018-07-11T13:32:17.786Z,0.5
2018-07-11T13:34:17.656Z,0.5
2018-07-11T13:36:17.807Z,0.6
2018-07-11T13:38:17.647Z,0.6
2018-07-11T13:40:18.077Z,0.7
2018-07-11T13:42:17.924Z,0.4
2018-07-11T13:44:17.730Z,0.5
2018-07-11T13:46:18.494Z,0.4
2018-07-11T13:48:18.382Z,0.6
2018-07-11T13:50:18.204Z,0.6
2018-07-11T13:52:18.033Z,0.6
2018-07-11T13:54:17.852Z,0.6
2018-07-11T13:56:17.583Z,0.5
2018-07-11T13:58:18.385Z,0.7
2018-07-11T14:00:18.291Z,0.8
2018-07-11T14:02:17.838Z,0.9
2018-07-11T14:04:17.675Z,0.4
2018-07-11T14:06:17.912Z,0.4
2018-07-11T14:08:17.743Z,0.5
2018-07-11T14:10:18.098Z,0.5
2018-07-11T14:12:17.944Z,0.4
2018-07-11T14:14:17.784Z,0.7
2018-07-11T14:16:18.033Z,0.5
2018-07-11T14:18:17.979Z,0.7
2018-07-11T14:20:17.873Z,0.5
2018-07-11T14:22:17.861Z,0.4
2018-07-11T14:24:17.703Z,0.3
2018-07-11T14:26:17.955Z,0.7
2018-07-11T14:28:17.785Z,0.3
2018-07-11T14:30:17.685Z,0.5
2018-07-11T14:32:18.551Z,0.7
2018-07-11T14:34:18.408Z,0.7
2018-07-11T14:36:18.104Z,0.5
2018-07-11T14:38:17.963Z,0.5
2018-07-11T14:40:18.293Z,0.5
2018-07-11T14:42:18.170Z,0.4
2018-07-11T14:44:18.078Z,0.5
2018-07-11T14:46:18.303Z,0.6
2018-07-11T14:48:18.186Z,0.5
2018-07-11T14:50:18.040Z,0.4
2018-07-11T14:52:17.905Z,0.4
2018-07-11T14:54:17.783Z,0.3
2018-07-11T14:56:18.353Z,0.5
2018-07-11T14:58:18.184Z,0.4
2018-07-11T15:00:18.054Z,0.3
2018-07-11T15:02:17.899Z,0.4
2018-07-11T15:04:17.751Z,0.3
2018-07-11T15:06:18.357Z,0.5
2018-07-11T15:08:18.454Z,0.3
2018-07-11T15:10:18.311Z,0.3
2018-07-11T15:12:18.171Z,0.4
2018-07-11T15:14:18.036Z,0.3
2018-07-11T15:16:17.867Z,0.8
2018-07-11T15:18:17.773Z,0.8
2018-07-11T15:20:17.645Z,0.5
2018-07-11T15:22:18.491Z,0.3
2018-07-11T15:24:18.347Z,0.7
2018-07-11T15:26:18.444Z,0.5
2018-07-11T15:28:18.277Z,0.4
2018-07-11T15:30:18.128Z,0.4
2018-07-11T15:32:17.967Z,0.5
2018-07-11T15:34:17.842Z,0.5
2018-07-11T15:36:18.017Z,0.6
2018-07-11T15:38:17.859Z,0.8
2018-07-11T15:40:18.144Z,0.5
2018-07-11T15:42:17.978Z,0.6
2018-07-11T15:44:17.803Z,0.5
2018-07-11T15:46:17.949Z,0.6
2018-07-11T15:48:17.765Z,0.8
2018-07-11T15:50:17.644Z,0.6
2018-07-11T15:52:18.456Z,0.9
2018-07-11T15:54:18.278Z,0.6
2018-07-11T15:56:17.902Z,0.8
2018-07-11T15:58:17.732Z,0.8
2018-07-11T16:00:17.554Z,0.5
2018-07-11T16:02:18.376Z,0.4
2018-07-11T16:04:18.199Z,0.7
2018-07-11T16:06:17.846Z,0.8
2018-07-11T16:08:17.678Z,0.4
2018-07-11T16:10:17.941Z,0.9
2018-07-11T16:12:17.769Z,0.5
2018-07-11T16:14:17.590Z,0.9
2018-07-11T16:16:17.893Z,0.5
2018-07-11T16:18:17.785Z,0.7
2018-07-11T16:20:17.603Z,0.5
2018-07-11T16:22:18.429Z,0.4
2018-07-11T16:24:18.243Z,0.5
2018-07-11T16:26:18.394Z,0.6
2018-07-11T16:28:18.245Z,0.7
2018-07-11T16:30:18.079Z,0.8
2018-07-11T16:32:17.894Z,0.6
2018-07-11T16:34:17.732Z,0.4
2018-07-11T16:36:18.319Z,0.5
2018-07-11T16:38:18.160Z,0.4
2018-07-11T16:40:18.646Z,0.4
2018-07-11T16:42:18.498Z,0.6
2018-07-11T16:44:18.312Z,0.6
2018-07-11T16:46:18.175Z,0.5
2018-07-11T16:48:18.000Z,0.7
2018-07-11T16:50:17.833Z,0.7
2018-07-11T16:52:17.643Z,0.5
2018-07-11T16:54:18.463Z,0.6
2018-07-11T16:56:18.549Z,0.7
2018-07-11T16:58:18.409Z,0.5
2018-07-11T17:00:18.276Z,0.6
2018-07-11T17:02:18.098Z,0.7
2018-07-11T17:04:17.918Z,0.6
2018-07-11T17:06:17.574Z,0.6
2018-07-11T17:08:18.388Z,0.4
2018-07-11T17:10:17.658Z,0.4
2018-07-11T17:12:18.171Z,0.4
2018-07-11T17:14:17.972Z,0.3
2018-07-11T17:16:18.526Z,0.4
2018-07-11T17:18:18.460Z,0.4
2018-07-11T17:20:18.288Z,0.3
2018-07-11T17:22:18.108Z,0.5
2018-07-11T17:24:17.929Z,0.4
2018-07-11T17:26:18.083Z,0.5
2018-07-11T17:28:17.882Z,0.5
2018-07-11T17:30:17.712Z,0.6
2018-07-11T17:32:18.534Z,0.4
2018-07-11T17:34:18.344Z,0.5
2018-07-11T17:36:18.514Z,0.4
2018-07-11T17:38:18.323Z,0.7
2018-07-11T17:40:17.606Z,0.6
2018-07-11T17:42:18.421Z,0.4
2018-07-11T17:44:18.260Z,0.4
2018-07-11T17:46:17.836Z,0.4
2018-07-11T17:48:17.745Z,0.7
2018-07-11T17:50:17.682Z,0.4
2018-07-11T17:52:18.504Z,0.6
2018-07-11T17:54:18.317Z,0.5
2018-07-11T17:56:17.973Z,0.4
2018-07-11T17:58:17.786Z,0.8
2018-07-11T18:00:17.622Z,0.5
2018-07-11T18:02:18.437Z,0.4
2018-07-11T18:04:18.242Z,0.5
2018-07-11T18:06:18.425Z,0.3
2018-07-11T18:08:18.250Z,0.4
2018-07-11T18:10:18.550Z,0.5
2018-07-11T18:12:18.363Z,0.5
2018-07-11T18:14:18.165Z,0.4
2018-07-11T18:16:17.833Z,0.5
2018-07-11T18:18:17.743Z,0.5
2018-07-11T18:20:17.631Z,0.5
2018-07-11T18:22:18.454Z,0.5
2018-07-11T18:24:18.256Z,0.4
2018-07-11T18:26:18.084Z,0.4
2018-07-11T18:28:17.888Z,0.4
2018-07-11T18:30:17.726Z,0.5
2018-07-11T18:32:17.539Z,0.5
2018-07-11T18:34:18.388Z,0.4
2018-07-11T18:36:18.041Z,0.3
2018-07-11T18:38:17.849Z,0.4
2018-07-11T18:40:18.150Z,0.3
2018-07-11T18:42:17.957Z,0.5
2018-07-11T18:44:17.764Z,0.5
2018-07-11T18:46:18.329Z,0.5
2018-07-11T18:48:18.144Z,0.6
2018-07-11T18:50:18.064Z,0.4
2018-07-11T18:52:18.039Z,0.7
2018-07-11T18:54:17.865Z,0.4
2018-07-11T18:56:17.969Z,0.5
2018-07-11T18:58:17.760Z,0.4
2018-07-11T19:00:17.574Z,0.4
2018-07-11T19:02:18.419Z,0.3
2018-07-11T19:04:18.255Z,0.5
2018-07-11T19:06:18.244Z,0.2
2018-07-11T19:08:18.020Z,0.3
2018-07-11T19:10:18.291Z,0.5
2018-07-11T19:12:18.263Z,0.4
2018-07-11T19:14:18.059Z,0.3
2018-07-11T19:16:18.044Z,0.3
2018-07-11T19:18:18.040Z,0.4
2018-07-11T19:20:18.030Z,0.5
2018-07-11T19:22:17.807Z,0.4
2018-07-11T19:24:17.614Z,0.5
2018-07-11T19:26:18.034Z,0.6
2018-07-11T19:28:17.842Z,0.4
2018-07-11T19:30:17.664Z,0.6
2018-07-11T19:32:17.690Z,0.4
2018-07-11T19:34:18.470Z,0.5
2018-07-11T19:36:17.707Z,0.5
2018-07-11T19:38:18.526Z,0.6
2018-07-11T19:40:18.032Z,0.6
2018-07-11T19:42:17.833Z,0.9
2018-07-11T19:44:17.638Z,0.7
2018-07-11T19:46:18.256Z,0.6
2018-07-11T19:48:18.069Z,0.7
2018-07-11T19:50:17.918Z,0.6
2018-07-11T19:52:17.742Z,0.6
2018-07-11T19:54:17.541Z,0.4
2018-07-11T19:56:17.755Z,0.7
2018-07-11T19:58:17.618Z,0.6
2018-07-11T20:00:18.429Z,0.7
2018-07-11T20:02:18.261Z,0.5
2018-07-11T20:04:18.060Z,0.7
2018-07-11T20:06:17.613Z,0.9
2018-07-11T20:08:18.443Z,1.1
2018-07-11T20:10:17.797Z,1.4
2018-07-11T20:12:17.604Z,1.2
2018-07-11T20:14:18.418Z,1.3
2018-07-11T20:16:18.057Z,1.1
2018-07-11T20:18:18.123Z,0.9
2018-07-11T20:20:17.959Z,0.8
2018-07-11T20:22:17.756Z,1.3
2018-07-11T20:24:17.577Z,1
2018-07-11T20:26:17.979Z,0.8
2018-07-11T20:28:17.782Z,1.2
2018-07-11T20:30:17.590Z,1.2
2018-07-11T20:32:18.391Z,1.6
2018-07-11T20:34:18.191Z,1
2018-07-11T20:36:17.740Z,1.2
2018-07-11T20:38:17.716Z,1.1
2018-07-11T20:40:18.060Z,1.7
2018-07-11T20:42:17.856Z,2.1
2018-07-11T20:44:17.654Z,1.5
2018-07-11T20:46:18.293Z,1.6
2018-07-11T20:48:18.188Z,2.2
2018-07-11T20:50:18.014Z,1.3
2018-07-11T20:52:17.805Z,1.8
2018-07-11T20:54:17.601Z,1.9
2018-07-11T20:56:17.788Z,1.7
2018-07-11T20:58:17.614Z,2
2018-07-11T21:00:18.415Z,2.2
2018-07-11T21:02:18.221Z,2.2
2018-07-11T21:04:18.031Z,2.1
2018-07-11T21:06:18.129Z,1.3
2018-07-11T21:08:17.930Z,1.5
2018-07-11T21:10:18.223Z,2
2018-07-11T21:12:18.053Z,1.9
2018-07-11T21:14:17.869Z,1.6
2018-07-11T21:16:17.930Z,1.6
2018-07-11T21:18:17.814Z,1.4
2018-07-11T21:20:17.639Z,1.7
2018-07-11T21:22:18.451Z,1.6
2018-07-11T21:24:18.268Z,1.6
2018-07-11T21:26:18.053Z,1.9
2018-07-11T21:28:17.841Z,1.8
2018-07-11T21:30:17.659Z,2
2018-07-11T21:32:18.477Z,2.1
2018-07-11T21:34:18.268Z,1.9
2018-07-11T21:36:18.362Z,2.1
2018-07-11T21:38:18.182Z,1.7
2018-07-11T21:40:18.488Z,2.1
2018-07-11T21:42:18.309Z,1.8
2018-07-11T21:44:18.102Z,1.6
2018-07-11T21:46:17.725Z,2.2
2018-07-11T21:48:17.536Z,1.5
2018-07-11T21:50:18.362Z,1.6
2018-07-11T21:52:17.885Z,1.9
2018-07-11T21:54:17.692Z,1.6
2018-07-11T21:56:17.806Z,1.2
2018-07-11T21:58:17.612Z,2
2018-07-11T22:00:18.479Z,1.7
2018-07-11T22:02:18.416Z,2
2018-07-11T22:04:18.222Z,1.8
2018-07-11T22:06:17.774Z,1.5
2018-07-11T22:08:17.583Z,2.3
2018-07-11T22:10:17.856Z,2
2018-07-11T22:12:18.651Z,2.4
2018-07-11T22:14:18.453Z,1.9
2018-07-11T22:16:18.460Z,2.1
2018-07-11T22:18:18.359Z,1.9
2018-07-11T22:20:18.153Z,1.7
2018-07-11T22:22:17.961Z,1.9
2018-07-11T22:24:17.752Z,1.7
2018-07-11T22:26:18.872Z,2.4
2018-07-11T22:28:17.682Z,1.6
2018-07-11T22:30:18.493Z,1.4
2018-07-11T22:32:18.309Z,2.2
2018-07-11T22:34:18.093Z,2
2018-07-11T22:36:19.255Z,1.8
2018-07-11T22:38:19.033Z,1.6
2018-07-11T22:40:18.276Z,2.4
2018-07-11T22:42:17.905Z,1.7
2018-07-11T22:44:17.706Z,1.7
2018-07-11T22:46:17.626Z,2.2
2018-07-11T22:48:18.432Z,1.1
2018-07-11T22:50:19.255Z,1.5
2018-07-11T22:52:18.057Z,2
2018-07-11T22:54:17.853Z,1.9
2018-07-11T22:56:18.065Z,1.4
2018-07-11T22:58:18.919Z,1.7
2018-07-11T23:00:17.740Z,1.2
2018-07-11T23:02:18.529Z,1.4
2018-07-11T23:04:19.296Z,1.5
2018-07-11T23:06:19.007Z,1.6
2018-07-11T23:08:18.850Z,1.4
2018-07-11T23:10:19.441Z,1.4
2018-07-11T23:12:18.233Z,1.8
2018-07-11T23:14:18.027Z,2
2018-07-11T23:16:17.907Z,1.2
2018-07-11T23:18:17.786Z,1.3
2018-07-11T23:20:17.592Z,1.5
2018-07-11T23:22:18.387Z,1.6
2018-07-11T23:24:19.178Z,2
2018-07-11T23:26:17.816Z,1.3
2018-07-11T23:28:18.605Z,1.5
2018-07-11T23:30:18.448Z,1.4
2018-07-11T23:32:18.232Z,1.4
2018-07-11T23:34:19.030Z,1.2
2018-07-11T23:36:18.674Z,1.5
2018-07-11T23:38:18.477Z,1.2
2018-07-11T23:40:17.740Z,1.1
2018-07-11T23:42:19.299Z,1.3
2018-07-11T23:44:19.117Z,1.2
2018-07-11T23:46:17.678Z,2.2
2018-07-11T23:48:18.497Z,1.4
2018-07-11T23:50:19.320Z,1.2
2018-07-11T23:52:18.113Z,1.3
2018-07-11T23:54:17.927Z,1
2018-07-11T23:56:18.839Z,2.1
2018-07-11T23:58:18.607Z,1.7
